Time;durP1;ratioP1;P1;durP2;ratioP2;P2;SDS_P1;SDS_P2;PMS_P1;PMS_P2;Temp;Humidity;BMP_temperature;BMP_pressure;BME280_temperature;BME280_humidity;BME280_pressure;Samples;Min_cycle;Max_cycle;Signal;HPM_P1;HPM_P2
2021/01/10 00:01:46;;;;;;;45.38;20.38;;;;;;;-0.05;86.45;99627.34;3496883;28;20053;-47
2021/01/10 00:03:28;;;;;;;34.90;16.38;;;;;;;-0.04;86.17;99630.75;3496117;28;20044;-46
2021/01/10 00:05:11;;;;;;;33.97;17.50;;;;;;;-0.05;86.30;99629.03;3498226;28;20052;-47
2021/01/10 00:06:53;;;;;;;28.75;13.82;;;;;;;-0.03;86.34;99630.84;3495979;28;20457;-47
2021/01/10 00:08:34;;;;;;;41.78;19.85;;;;;;;-0.03;86.18;99623.19;3496274;28;20049;-47
2021/01/10 00:10:17;;;;;;;43.40;19.92;;;;;;;-0.03;86.16;99628.28;3498259;28;20133;-48
2021/01/10 00:11:59;;;;;;;38.95;18.10;;;;;;;-0.03;85.83;99630.84;3496108;28;20059;-47
2021/01/10 00:13:41;;;;;;;42.80;19.13;;;;;;;-0.02;85.86;99631.75;3496024;28;20044;-47
2021/01/10 00:15:23;;;;;;;40.33;17.42;;;;;;;-0.03;86.02;99638.50;3498091;28;20048;-48
2021/01/10 00:17:05;;;;;;;36.38;16.42;;;;;;;-0.03;86.10;99637.63;3495735;28;20124;-48
2021/01/10 00:18:47;;;;;;;46.53;21.60;;;;;;;-0.04;86.40;99644.41;3497430;28;20611;-47
2021/01/10 00:20:31;;;;;;;41.50;19.63;;;;;;;-0.03;86.27;99642.72;3496195;28;20048;-48
2021/01/10 00:22:13;;;;;;;39.47;18.70;;;;;;;-0.06;86.04;99635.81;3496147;28;20056;-46
2021/01/10 00:23:54;;;;;;;47.03;20.60;;;;;;;-0.04;86.11;99636.75;3497705;28;20053;-46
2021/01/10 00:25:36;;;;;;;36.03;15.73;;;;;;;-0.04;86.49;99635.84;3495452;28;20110;-46
2021/01/10 00:27:18;;;;;;;43.70;20.98;;;;;;;-0.05;86.58;99640.09;3495442;28;20497;-49
2021/01/10 00:29:01;;;;;;;43.80;19.58;;;;;;;-0.04;86.21;99641.84;3497679;28;20429;-47
2021/01/10 00:30:42;;;;;;;40.72;19.42;;;;;;;-0.04;86.22;99638.41;3496482;28;20075;-46
2021/01/10 00:32:24;;;;;;;31.98;14.60;;;;;;;-0.04;86.25;99646.97;3497268;28;20056;-46
2021/01/10 00:34:06;;;;;;;47.53;21.58;;;;;;;-0.05;86.25;99636.66;3496599;28;20048;-46
2021/01/10 00:35:48;;;;;;;44.60;19.60;;;;;;;-0.06;86.24;99633.25;3495197;28;20567;-46
2021/01/10 00:37:30;;;;;;;44.63;20.08;;;;;;;-0.05;86.45;99639.22;3497601;28;20456;-47
2021/01/10 00:39:15;;;;;;;43.67;20.30;;;;;;;-0.04;86.21;99646.06;3495761;28;20048;-46
2021/01/10 00:40:57;;;;;;;40.42;18.00;;;;;;;-0.04;86.16;99640.94;3495802;28;20052;-46
2021/01/10 00:42:40;;;;;;;47.83;20.25;;;;;;;-0.03;86.02;99638.50;3495881;28;20044;-46
2021/01/10 00:44:21;;;;;;;45.28;19.65;;;;;;;-0.03;86.19;99640.19;3495259;28;20467;-47
2021/01/10 00:46:05;;;;;;;40.50;19.30;;;;;;;-0.03;86.23;99635.94;3496314;28;20481;-46
2021/01/10 00:47:47;;;;;;;36.15;16.23;;;;;;;-0.02;86.21;99642.81;3497070;28;20057;-47
2021/01/10 00:49:29;;;;;;;37.92;17.63;;;;;;;-0.02;86.37;99640.25;3495603;28;20131;-46
2021/01/10 00:51:15;;;;;;;33.03;15.95;;;;;;;-0.02;86.38;99627.50;3496814;28;20428;-46
2021/01/10 00:52:56;;;;;;;40.58;19.55;;;;;;;-0.01;86.46;99644.56;3495645;28;20045;-45
2021/01/10 00:54:38;;;;;;;44.17;20.15;;;;;;;-0.01;86.39;99643.69;3495279;28;20464;-46
2021/01/10 00:56:20;;;;;;;46.40;19.73;;;;;;;-0.03;86.45;99651.25;3497805;28;20056;-45
2021/01/10 00:58:01;;;;;;;40.08;19.80;;;;;;;-0.02;86.25;99645.38;3495046;28;20079;-45
2021/01/10 00:59:43;;;;;;;43.53;20.20;;;;;;;-0.02;86.29;99642.81;3495443;28;20530;-45
2021/01/10 01:01:24;;;;;;;46.03;20.48;;;;;;;-0.03;86.32;99642.72;3497500;28;20064;-46
2021/01/10 01:03:06;;;;;;;43.80;19.15;;;;;;;-0.03;86.34;99646.13;3493767;28;20044;-46
2021/01/10 01:04:53;;;;;;;39.05;19.40;;;;;;;-0.01;86.24;99652.19;3496288;28;20048;-46
2021/01/10 01:06:35;;;;;;;41.03;17.83;;;;;;;-0.00;86.45;99658.19;3497141;28;20052;-47
2021/01/10 01:08:17;;;;;;;36.35;17.13;;;;;;;0.00;86.23;99641.22;3495240;28;20429;-46
2021/01/10 01:09:59;;;;;;;41.53;19.40;;;;;;;0.00;86.33;99651.41;3497111;28;20050;-46
2021/01/10 01:11:41;;;;;;;41.00;20.15;;;;;;;-0.01;86.27;99643.69;3495210;28;20051;-46
2021/01/10 01:13:23;;;;;;;39.80;18.58;;;;;;;-0.01;86.27;99643.69;3487213;28;20048;-46
2021/01/10 01:15:05;;;;;;;36.28;18.00;;;;;;;-0.00;86.48;99642.91;3497113;28;20114;-45
2021/01/10 01:16:47;;;;;;;38.95;19.80;;;;;;;-0.00;86.36;99642.91;3495829;28;20036;-45
2021/01/10 01:18:29;;;;;;;45.70;19.15;;;;;;;0.00;86.33;99646.31;3495174;28;20049;-46
2021/01/10 01:20:11;;;;;;;45.90;20.20;;;;;;;-0.01;86.45;99646.22;3496935;28;20528;-47
2021/01/10 01:21:54;;;;;;;45.10;20.27;;;;;;;-0.01;86.30;99641.13;3495485;28;20088;-47
2021/01/10 01:23:37;;;;;;;38.10;17.75;;;;;;;-0.02;86.25;99636.84;3496906;28;20048;-47
2021/01/10 01:25:19;;;;;;;47.25;21.27;;;;;;;-0.03;86.51;99641.03;3495479;28;20049;-47
2021/01/10 01:27:00;;;;;;;35.13;16.98;;;;;;;-0.04;86.63;99636.75;3494725;28;20140;-46
2021/01/10 01:28:43;;;;;;;45.08;19.27;;;;;;;-0.03;86.65;99645.28;3496972;28;20082;-47
2021/01/10 01:30:25;;;;;;;47.45;20.65;;;;;;;-0.03;86.41;99642.72;3495244;28;20044;-45
2021/01/10 01:32:07;;;;;;;42.17;18.15;;;;;;;-0.04;86.31;99635.84;3495056;28;20056;-46
2021/01/10 01:33:51;;;;;;;49.17;20.38;;;;;;;-0.03;86.49;99640.19;3497158;28;20079;-46
2021/01/10 01:35:32;;;;;;;39.10;16.85;;;;;;;-0.04;86.47;99638.41;3494918;28;20344;-46
2021/01/10 01:37:15;;;;;;;47.03;20.27;;;;;;;-0.04;86.52;99641.84;3496395;28;20044;-45
2021/01/10 01:39:01;;;;;;;44.60;20.05;;;;;;;-0.03;86.70;99637.63;3496608;28;20086;-46
2021/01/10 01:40:42;;;;;;;47.40;21.47;;;;;;;-0.04;86.76;99638.41;3494950;28;20102;-46
2021/01/10 01:42:24;;;;;;;46.45;20.15;;;;;;;-0.04;86.92;99644.41;3495604;28;20060;-46
2021/01/10 01:44:06;;;;;;;45.97;20.80;;;;;;;-0.05;87.02;99631.56;3494204;28;20525;-44
2021/01/10 01:45:47;;;;;;;41.38;19.45;;;;;;;-0.07;87.02;99636.56;3495025;28;20114;-49
2021/01/10 01:47:29;;;;;;;43.67;21.30;;;;;;;-0.07;86.77;99634.03;3497124;28;20053;-46
2021/01/10 01:49:14;;;;;;;45.78;21.75;;;;;;;-0.07;86.67;99634.03;3494671;28;20143;-45
2021/01/10 01:50:57;;;;;;;41.90;18.23;;;;;;;-0.05;86.90;99634.13;3494864;28;20052;-46
2021/01/10 01:52:40;;;;;;;38.97;16.63;;;;;;;-0.03;86.99;99640.19;3495845;28;20048;-46
2021/01/10 01:54:22;;;;;;;48.42;21.65;;;;;;;-0.05;86.92;99640.09;3494686;28;20309;-46
2021/01/10 01:56:04;;;;;;;46.40;20.08;;;;;;;-0.06;86.95;99635.81;3496347;28;20048;-46
2021/01/10 01:57:46;;;;;;;49.70;21.73;;;;;;;-0.05;86.76;99641.75;3495690;28;20095;-47
2021/01/10 01:59:27;;;;;;;47.15;21.50;;;;;;;-0.06;87.03;99643.44;3494760;28;20044;-47
2021/01/10 02:01:09;;;;;;;47.47;21.55;;;;;;;-0.06;86.88;99648.53;3497033;28;20091;-48
2021/01/10 02:02:51;;;;;;;46.17;20.60;;;;;;;-0.07;87.17;99649.31;3495050;28;20520;-46
2021/01/10 02:04:39;;;;;;;50.17;21.83;;;;;;;-0.07;87.15;99651.88;3495337;28;20071;-46
2021/01/10 02:06:25;;;;;;;52.60;23.33;;;;;;;-0.06;87.24;99651.09;3496730;28;20060;-46
2021/01/10 02:08:10;;;;;;;50.83;22.40;;;;;;;-0.06;87.16;99648.53;3494742;28;20040;-46
2021/01/10 02:09:56;;;;;;;45.35;20.60;;;;;;;-0.05;87.40;99655.38;3494764;28;20107;-46
2021/01/10 02:11:42;;;;;;;46.05;19.98;;;;;;;-0.05;87.26;99651.97;3496674;28;20076;-46
2021/01/10 02:13:26;;;;;;;50.45;21.58;;;;;;;-0.05;87.22;99652.84;3494165;28;20063;-47
2021/01/10 02:15:09;;;;;;;42.95;19.67;;;;;;;-0.06;87.50;99653.66;3495805;28;20049;-47
2021/01/10 02:16:52;;;;;;;47.47;22.77;;;;;;;-0.05;87.28;99657.94;3482829;28;20107;-45
2021/01/10 02:18:36;;;;;;;45.55;20.35;;;;;;;-0.06;87.43;99651.09;3491707;28;20378;-48
2021/01/10 02:20:25;;;;;;;45.58;19.27;;;;;;;-0.05;87.33;99649.41;3494417;28;20052;-47
2021/01/10 02:22:10;;;;;;;41.55;16.10;;;;;;;-0.05;87.63;99649.41;3496439;28;20044;-47
2021/01/10 02:24:01;;;;;;;42.92;18.52;;;;;;;-0.01;87.63;99653.88;3494729;28;20052;-45
2021/01/10 02:25:44;;;;;;;47.10;20.90;;;;;;;0.00;87.45;99651.41;3494334;28;20048;-46
2021/01/10 02:27:26;;;;;;;50.38;21.40;;;;;;;0.01;87.25;99649.75;3496487;28;20052;-46
2021/01/10 02:29:08;;;;;;;44.13;17.60;;;;;;;0.01;87.25;99654.84;3494136;28;20052;-46
2021/01/10 02:30:51;;;;;;;41.00;17.98;;;;;;;0.00;87.61;99651.41;3494179;28;20060;-46
2021/01/10 02:32:35;;;;;;;55.17;23.60;;;;;;;-0.01;87.48;99657.31;3496216;28;20599;-47
2021/01/10 02:34:17;;;;;;;;;;;;;;;-0.01;87.60;99651.34;3494745;28;20040;-47
2021/01/10 02:36:05;;;;;;;40.42;18.08;;;;;;;-0.01;87.61;99656.44;3496071;28;19972;-45
2021/01/10 02:38:16;;;;;;;53.13;21.90;;;;;;;-0.01;87.72;99654.75;3495755;28;20048;-47
2021/01/10 02:40:12;;;;;;;50.45;20.95;;;;;;;-0.02;87.41;99647.03;3494693;28;20049;-47
2021/01/10 02:41:59;;;;;;;54.95;22.38;;;;;;;-0.03;87.60;99645.28;3492475;28;20049;-47
2021/01/10 02:43:46;;;;;;;53.78;21.45;;;;;;;-0.04;87.61;99648.59;3496102;28;20045;-47
2021/01/10 02:45:29;;;;;;;48.28;18.52;;;;;;;-0.03;87.54;99650.38;3494440;28;20044;-47
2021/01/10 02:47:10;;;;;;;51.83;22.10;;;;;;;-0.05;87.83;99640.09;3494478;28;20078;-45
2021/01/10 02:48:53;;;;;;;44.10;19.63;;;;;;;-0.07;87.97;99644.22;3495953;28;20055;-46
2021/01/10 02:50:35;;;;;;;50.33;23.20;;;;;;;-0.04;88.01;99651.16;3493663;28;20048;-46
2021/01/10 02:52:17;;;;;;;51.28;22.95;;;;;;;-0.04;87.80;99657.16;3495581;28;20052;-45
2021/01/10 02:53:59;;;;;;;49.88;22.00;;;;;;;-0.02;87.58;99655.56;3495363;28;20059;-45
2021/01/10 02:55:41;;;;;;;51.97;22.38;;;;;;;-0.01;87.90;99661.53;3493985;28;20044;-47
2021/01/10 02:57:28;;;;;;;43.22;20.40;;;;;;;-0.03;87.87;99653.78;3496486;28;20080;-47
2021/01/10 02:59:12;;;;;;;48.95;22.05;;;;;;;-0.02;87.64;99652.16;3494236;28;20580;-46
2021/01/10 03:00:59;;;;;;;46.33;21.75;;;;;;;-0.04;87.74;99653.69;3493645;28;20063;-47
2021/01/10 03:02:42;;;;;;;51.53;21.05;;;;;;;-0.02;87.58;99655.56;3495971;28;20094;-46
2021/01/10 03:04:25;;;;;;;37.35;17.10;;;;;;;-0.02;87.63;99653.00;3494203;28;20040;-47
2021/01/10 03:06:07;;;;;;;53.00;22.98;;;;;;;-0.03;87.57;99661.44;3494372;28;20087;-48
2021/01/10 03:07:49;;;;;;;51.25;22.63;;;;;;;-0.02;87.86;99653.00;3495770;28;20105;-46
2021/01/10 03:09:31;;;;;;;52.60;21.70;;;;;;;-0.01;87.83;99658.97;3494018;28;20048;-47
2021/01/10 03:11:14;;;;;;;49.42;22.63;;;;;;;-0.02;87.60;99660.66;3495021;28;20059;-47
2021/01/10 03:12:56;;;;;;;51.38;22.08;;;;;;;-0.02;87.71;99652.16;3495223;28;20053;-48
2021/01/10 03:14:40;;;;;;;48.05;23.20;;;;;;;-0.01;87.74;99652.19;3494184;28;20055;-48
2021/01/10 03:16:21;;;;;;;;;;;;;;;-0.01;87.74;99652.19;3496536;28;20092;-48
2021/01/10 03:18:16;;;;;;;50.25;21.33;;;;;;;-0.01;87.79;99647.09;3483959;28;20019;-47
2021/01/10 03:19:58;;;;;;;50.65;22.00;;;;;;;-0.00;87.81;99650.56;3491016;28;20052;-49
2021/01/10 03:21:40;;;;;;;43.90;20.65;;;;;;;0.01;87.30;99650.63;3495017;28;20060;-47
2021/01/10 03:23:21;;;;;;;53.47;21.58;;;;;;;0.01;87.64;99668.50;3495584;28;20052;-47
2021/01/10 03:25:05;;;;;;;44.95;19.42;;;;;;;0.00;87.72;99653.97;3494325;28;20048;-47
2021/01/10 03:26:48;;;;;;;50.70;23.33;;;;;;;0.01;87.52;99657.38;3497862;28;20498;-46
2021/01/10 03:28:30;;;;;;;53.65;22.88;;;;;;;-0.01;87.51;99653.88;3495653;28;20053;-48
2021/01/10 03:30:15;;;;;;;43.70;20.80;;;;;;;-0.00;87.78;99650.56;3496101;28;20528;-48
2021/01/10 03:31:57;;;;;;;38.10;16.88;;;;;;;0.02;87.60;99656.59;3498319;28;20456;-48
2021/01/10 03:33:45;;;;;;;48.40;22.92;;;;;;;0.01;87.73;99647.19;3496682;28;20332;-47
2021/01/10 03:35:27;;;;;;;52.08;23.50;;;;;;;-0.00;87.51;99653.09;3496590;28;20284;-45
2021/01/10 03:37:08;;;;;;;51.28;22.75;;;;;;;0.00;87.38;99653.97;3497847;28;20057;-47
2021/01/10 03:38:50;;;;;;;47.92;21.02;;;;;;;0.02;87.64;99648.97;3496138;28;20429;-45
2021/01/10 03:40:32;;;;;;;46.78;17.85;;;;;;;0.02;87.60;99654.06;3496181;28;20075;-44
2021/01/10 03:42:15;;;;;;;42.47;18.42;;;;;;;0.01;87.40;99650.63;3497005;28;20049;-44
2021/01/10 03:43:56;;;;;;;50.60;22.45;;;;;;;0.03;87.55;99655.78;3496011;28;20044;-48
2021/01/10 03:45:38;;;;;;;50.30;19.95;;;;;;;0.06;87.25;99650.00;3497213;28;20048;-48
2021/01/10 03:47:19;;;;;;;53.05;21.25;;;;;;;0.04;87.43;99652.47;3496972;28;20501;-48
2021/01/10 03:49:01;;;;;;;40.90;17.25;;;;;;;0.06;87.09;99645.78;3496001;28;20056;-47
2021/01/10 03:50:43;;;;;;;50.28;21.48;;;;;;;0.05;87.02;99654.25;3498171;28;20056;-44
2021/01/10 03:52:24;;;;;;;43.85;19.60;;;;;;;0.05;87.25;99649.13;3495968;28;20041;-46
2021/01/10 03:54:06;;;;;;;46.33;22.63;;;;;;;0.05;87.34;99646.59;3496372;28;20297;-45
2021/01/10 03:55:48;;;;;;;44.33;17.77;;;;;;;0.05;87.12;99654.25;3484473;28;20529;-48
2021/01/10 03:57:30;;;;;;;49.03;20.55;;;;;;;0.04;86.99;99655.88;3492520;28;20044;-47
2021/01/10 03:59:12;;;;;;;48.80;21.00;;;;;;;0.04;86.98;99657.56;3496897;28;20056;-47
2021/01/10 04:00:53;;;;;;;50.42;22.63;;;;;;;0.05;87.37;99664.44;3497568;28;20398;-48
2021/01/10 04:02:35;;;;;;;49.90;21.65;;;;;;;0.05;87.40;99664.44;3495901;28;20048;-47
2021/01/10 04:04:18;;;;;;;49.47;22.35;;;;;;;0.06;86.94;99660.22;3498152;28;20540;-46
2021/01/10 04:05:59;;;;;;;44.05;20.30;;;;;;;0.06;87.07;99662.75;3495876;28;20052;-46
2021/01/10 04:07:41;;;;;;;54.22;23.55;;;;;;;0.07;87.48;99661.97;3495482;28;20052;-46
2021/01/10 04:09:23;;;;;;;53.58;22.23;;;;;;;0.06;87.17;99665.31;3498695;28;20048;-46
2021/01/10 04:11:04;;;;;;;53.88;23.05;;;;;;;0.05;87.30;99664.44;3495231;28;20084;-47
2021/01/10 04:12:47;;;;;;;56.47;22.98;;;;;;;0.05;87.29;99661.88;3496373;28;20049;-46
2021/01/10 04:14:28;;;;;;;51.83;22.52;;;;;;;0.04;87.63;99665.22;3498621;28;20052;-46
2021/01/10 04:16:12;;;;;;;46.03;18.95;;;;;;;0.04;87.42;99667.75;3495878;28;20059;-46
2021/01/10 04:17:54;;;;;;;53.42;22.85;;;;;;;0.04;87.26;99671.19;3497713;28;20052;-47
2021/01/10 04:19:35;;;;;;;44.35;18.58;;;;;;;0.05;87.49;99669.53;3496552;28;20456;-47
2021/01/10 04:21:17;;;;;;;54.35;24.00;;;;;;;0.04;87.43;99670.31;3495660;28;20068;-48
2021/01/10 04:22:59;;;;;;;43.40;17.85;;;;;;;0.04;87.52;99670.31;3497771;28;20505;-47
2021/01/10 04:24:40;;;;;;;48.90;21.38;;;;;;;0.06;87.67;99672.97;3495426;28;20052;-46
2021/01/10 04:26:22;;;;;;;48.42;21.42;;;;;;;0.03;87.51;99672.00;3495859;28;20048;-47
2021/01/10 04:28:05;;;;;;;48.10;20.70;;;;;;;0.03;87.56;99677.09;3496617;28;20060;-47
2021/01/10 04:29:46;;;;;;;55.28;22.90;;;;;;;0.02;87.59;99675.31;3495905;28;20080;-48
2021/01/10 04:31:28;;;;;;;47.67;20.13;;;;;;;0.03;87.88;99678.75;3497411;28;20055;-47
2021/01/10 04:33:09;;;;;;;45.45;19.90;;;;;;;0.04;87.76;99676.28;3495861;28;20056;-47
2021/01/10 04:34:51;;;;;;;44.58;20.00;;;;;;;0.04;87.38;99683.94;3495375;28;20045;-48
2021/01/10 04:36:32;;;;;;;41.45;19.60;;;;;;;0.06;87.55;99688.25;3498088;28;20044;-45
2021/01/10 04:38:14;;;;;;;42.58;18.73;;;;;;;0.08;87.23;99686.66;3495750;28;20121;-47
2021/01/10 04:39:56;;;;;;;54.22;24.45;;;;;;;0.06;87.48;99685.72;3495844;28;20117;-47
2021/01/10 04:41:38;;;;;;;48.17;20.75;;;;;;;0.04;87.27;99690.72;3497833;28;20044;-47
2021/01/10 04:43:21;;;;;;;42.20;19.80;;;;;;;0.05;87.43;99695.03;3493708;28;20107;-47
2021/01/10 04:45:03;;;;;;;44.30;18.83;;;;;;;0.04;87.60;99704.34;3496793;28;20045;-49
2021/01/10 04:46:45;;;;;;;47.05;20.67;;;;;;;0.06;87.34;99698.47;3496937;28;20060;-47
2021/01/10 04:48:27;;;;;;;42.63;18.02;;;;;;;0.07;87.61;99700.22;3495276;28;20049;-47
2021/01/10 04:50:13;;;;;;;50.65;22.98;;;;;;;0.04;87.60;99699.25;3497712;28;20421;-45
2021/01/10 04:51:56;;;;;;;47.80;21.88;;;;;;;0.04;87.63;99703.47;3495726;28;20056;-48
2021/01/10 04:53:38;;;;;;;40.85;17.77;;;;;;;0.06;87.62;99699.31;3495300;28;20052;-46
2021/01/10 04:55:20;;;;;;;46.78;19.83;;;;;;;0.07;87.61;99707.88;3498024;28;20259;-46
2021/01/10 04:57:03;;;;;;;46.15;20.85;;;;;;;0.08;87.43;99702.84;3495367;28;20054;-47
2021/01/10 04:58:52;;;;;;;50.28;21.25;;;;;;;0.08;87.24;99701.97;3495232;28;20063;-45
2021/01/10 05:00:36;;;;;;;46.95;21.45;;;;;;;0.07;87.42;99708.75;3497581;28;20080;-46
2021/01/10 05:02:22;;;;;;;;;;;;;;;0.07;87.40;99710.44;3496063;28;20098;-48
2021/01/10 05:04:05;;;;;;;42.03;16.38;;;;;;;0.07;87.46;99713.84;3495282;28;20535;-47
2021/01/10 05:05:47;;;;;;;51.05;22.85;;;;;;;0.08;87.22;99714.72;3497076;28;20056;-46
2021/01/10 05:07:34;;;;;;;46.10;21.60;;;;;;;0.08;87.07;99717.28;3495555;28;20495;-48
2021/01/10 05:09:19;;;;;;;41.00;16.73;;;;;;;0.09;87.02;99722.47;3497143;28;20063;-47
2021/01/10 05:11:01;;;;;;;46.08;20.77;;;;;;;0.09;87.24;99725.00;3496215;28;20092;-48
2021/01/10 05:12:43;;;;;;;48.13;21.05;;;;;;;0.09;87.32;99719.91;3495870;28;20143;-47
2021/01/10 05:14:26;;;;;;;46.95;20.27;;;;;;;0.09;87.14;99726.69;3497069;28;20398;-46
2021/01/10 05:16:08;;;;;;;50.08;22.10;;;;;;;0.10;87.33;99734.44;3496360;28;20501;-46
2021/01/10 05:17:54;;;;;;;50.58;19.65;;;;;;;0.10;87.10;99728.44;3495038;28;20053;-47
2021/01/10 05:19:38;;;;;;;47.33;19.02;;;;;;;0.09;87.28;99732.66;3497290;28;20048;-45
2021/01/10 05:21:20;;;;;;;;;;;;;;;0.07;87.46;99726.59;3495300;28;20536;-46
2021/01/10 05:23:02;;;;;;;48.25;19.48;;;;;;;0.08;87.16;99728.34;3495511;28;20293;-47
2021/01/10 05:24:43;;;;;;;47.45;21.85;;;;;;;0.08;87.66;99732.56;3496833;28;20083;-47
2021/01/10 05:26:32;;;;;;;52.25;21.30;;;;;;;0.06;87.64;99734.16;3494991;28;20044;-48
2021/01/10 05:28:18;;;;;;;42.83;17.90;;;;;;;0.08;87.62;99741.09;3495946;28;20052;-47
2021/01/10 05:30:01;;;;;;;49.97;22.20;;;;;;;0.09;87.31;99736.91;3496088;28;20050;-46
2021/01/10 05:31:44;;;;;;;43.90;20.40;;;;;;;0.07;87.37;99731.69;3495078;28;20044;-47
2021/01/10 05:33:27;;;;;;;53.90;21.17;;;;;;;0.08;87.53;99730.88;3497105;28;20044;-50
2021/01/10 05:35:09;;;;;;;48.65;21.52;;;;;;;0.08;87.35;99738.53;3495105;28;20425;-48
2021/01/10 05:36:51;;;;;;;51.35;19.90;;;;;;;0.10;87.40;99741.19;3495179;28;20107;-48
2021/01/10 05:38:34;;;;;;;40.03;16.40;;;;;;;0.09;87.30;99737.75;3497028;28;20052;-49
2021/01/10 05:40:27;;;;;;;43.35;19.63;;;;;;;0.09;87.36;99745.41;3494892;28;20064;-48
2021/01/10 05:42:09;;;;;;;54.28;22.67;;;;;;;0.09;87.37;99744.53;3493969;28;20295;-46
2021/01/10 05:44:01;;;;;;;48.33;21.50;;;;;;;0.08;87.73;99747.88;3496680;28;20092;-48
2021/01/10 05:45:44;;;;;;;44.78;19.05;;;;;;;0.07;87.60;99741.91;3494537;28;20136;-45
2021/01/10 05:47:38;;;;;;;42.42;20.13;;;;;;;0.07;87.55;99748.69;3494845;28;20049;-48
2021/01/10 05:49:21;;;;;;;54.00;22.17;;;;;;;0.07;87.57;99751.22;3495899;28;20446;-47
2021/01/10 05:51:07;;;;;;;48.90;19.55;;;;;;;0.06;87.87;99747.78;3494431;28;20048;-48
2021/01/10 05:52:50;;;;;;;54.30;23.73;;;;;;;0.07;88.10;99756.34;3494432;28;20048;-48
2021/01/10 05:54:36;;;;;;;48.70;22.80;;;;;;;0.07;88.18;99753.78;3496518;28;20049;-48
2021/01/10 05:56:18;;;;;;;52.55;22.63;;;;;;;0.06;88.02;99752.88;3495212;28;20044;-46
2021/01/10 05:58:11;;;;;;;54.63;23.98;;;;;;;0.06;87.95;99752.00;3496177;28;20056;-48
2021/01/10 05:59:55;;;;;;;50.50;22.53;;;;;;;0.06;88.19;99754.56;3496052;28;20144;-46
2021/01/10 06:01:37;;;;;;;44.40;20.15;;;;;;;0.04;88.02;99752.78;3494659;28;20301;-47
2021/01/10 06:03:24;;;;;;;50.80;23.27;;;;;;;0.05;88.36;99756.25;3496611;28;20052;-46
2021/01/10 06:05:10;;;;;;;50.65;23.02;;;;;;;0.04;88.09;99762.13;3495803;28;20049;-48
2021/01/10 06:06:51;;;;;;;47.50;18.90;;;;;;;0.03;88.06;99751.06;3494587;28;20045;-49
2021/01/10 06:08:35;;;;;;;45.40;20.23;;;;;;;0.05;87.93;99758.78;3495907;28;20055;-48
2021/01/10 06:10:26;;;;;;;55.78;22.70;;;;;;;0.05;88.05;99769.00;3494758;28;20080;-48
2021/01/10 06:12:19;;;;;;;43.97;19.58;;;;;;;0.04;88.27;99759.56;3494553;28;20139;-48
2021/01/10 06:14:03;;;;;;;47.95;20.75;;;;;;;0.05;88.21;99766.44;3496273;28;20057;-45
2021/01/10 06:15:48;;;;;;;53.97;20.70;;;;;;;0.06;88.49;99772.41;3494839;28;20044;-47
2021/01/10 06:17:41;;;;;;;46.42;20.52;;;;;;;0.06;88.40;99770.75;3494253;28;20045;-47
2021/01/10 06:19:27;;;;;;;45.20;19.88;;;;;;;0.06;88.31;99772.41;3496337;28;20048;-49
2021/01/10 06:21:16;;;;;;;41.90;18.77;;;;;;;0.08;88.16;99773.38;3494667;28;20059;-48
2021/01/10 06:22:59;;;;;;;41.17;18.35;;;;;;;0.08;88.34;99775.94;3494487;28;20060;-48
2021/01/10 06:24:45;;;;;;;44.20;19.08;;;;;;;0.10;87.81;99782.88;3496271;28;20425;-45
2021/01/10 06:26:28;;;;;;;43.90;19.77;;;;;;;0.10;88.22;99777.78;3493934;28;20049;-47
2021/01/10 06:28:12;;;;;;;;;;;;;;;0.11;88.06;99783.75;3494628;28;20564;-47
2021/01/10 06:29:59;;;;;;;47.20;21.65;;;;;;;0.11;87.89;99776.97;3496485;28;19928;-46
2021/01/10 06:31:46;;;;;;;52.63;20.50;;;;;;;0.11;88.11;99779.53;3494264;28;20063;-48
2021/01/10 06:33:31;;;;;;;41.63;18.67;;;;;;;0.12;88.16;99788.06;3494304;28;20058;-47
2021/01/10 06:35:14;;;;;;;41.80;20.20;;;;;;;0.11;88.31;99776.97;3496183;28;20045;-47
2021/01/10 06:36:59;;;;;;;47.17;21.00;;;;;;;0.12;88.08;99778.75;3494145;28;20056;-47
2021/01/10 06:38:44;;;;;;;48.85;20.15;;;;;;;0.14;88.12;99792.47;3494403;28;20044;-48
2021/01/10 06:40:26;;;;;;;41.22;18.00;;;;;;;0.15;88.11;99791.66;3496292;28;20596;-48
2021/01/10 06:42:11;;;;;;;37.25;16.58;;;;;;;0.17;87.97;99791.75;3492764;28;20045;-48
2021/01/10 06:43:59;;;;;;;48.03;21.05;;;;;;;0.17;88.27;99799.41;3495112;28;20049;-47
2021/01/10 06:45:41;;;;;;;43.67;20.60;;;;;;;0.17;88.23;99800.31;3495244;28;20051;-46
2021/01/10 06:47:23;;;;;;;36.67;14.77;;;;;;;0.20;87.88;99804.69;3494413;28;20045;-47
2021/01/10 06:49:06;;;;;;;38.00;17.55;;;;;;;0.22;88.12;99800.53;3495840;28;20052;-48
2021/01/10 06:50:48;;;;;;;39.95;18.10;;;;;;;0.22;87.96;99803.09;3494739;28;20110;-47
2021/01/10 06:52:33;;;;;;;46.47;20.45;;;;;;;0.22;87.98;99808.19;3494362;28;20044;-46
2021/01/10 06:54:15;;;;;;;40.35;17.52;;;;;;;0.22;87.74;99806.56;3496064;28;20052;-47
2021/01/10 06:55:57;;;;;;;37.35;15.65;;;;;;;0.23;88.01;99810.84;3494189;28;20414;-46
2021/01/10 06:57:38;;;;;;;42.83;19.25;;;;;;;0.23;87.87;99812.53;3495128;28;20071;-48
2021/01/10 06:59:20;;;;;;;39.03;18.02;;;;;;;0.23;87.87;99813.38;3496297;28;20059;-47
2021/01/10 07:01:02;;;;;;;37.35;16.13;;;;;;;0.22;87.75;99814.19;3494123;28;20055;-47
2021/01/10 07:03:07;;;;;;;40.90;15.48;;;;;;;0.23;87.98;99818.50;3493931;28;20053;-47
2021/01/10 07:04:56;;;;;;;;;;;;;;;0.25;87.75;99825.38;3482918;28;20445;-46
2021/01/10 07:06:44;;;;;;;34.83;15.82;;;;;;;0.22;87.69;99815.84;3494191;28;19925;-46
2021/01/10 07:08:33;;;;;;;45.03;20.23;;;;;;;0.23;87.65;99815.94;3494200;28;20044;-50
2021/01/10 07:10:25;;;;;;;44.05;18.60;;;;;;;0.21;88.14;99814.97;3495777;28;20049;-48
2021/01/10 07:12:20;;;;;;;33.58;15.38;;;;;;;0.23;87.73;99815.94;3494147;28;20095;-47
2021/01/10 07:14:25;;;;;;;38.03;16.38;;;;;;;0.24;87.69;99827.00;3493864;28;20580;-46
2021/01/10 07:16:17;;;;;;;43.13;18.95;;;;;;;0.23;88.03;99830.38;3494100;28;20052;-47
2021/01/10 07:18:07;;;;;;;37.35;16.30;;;;;;;0.22;88.13;99839.72;3495438;28;20052;-48
2021/01/10 07:19:51;;;;;;;39.03;16.85;;;;;;;0.21;87.96;99837.94;3493561;28;20505;-49
2021/01/10 07:21:34;;;;;;;;;;;;;;;0.22;87.99;99828.59;3494532;28;20053;-46
2021/01/10 07:23:30;;;;;;;37.08;18.13;;;;;;;0.23;88.19;99840.56;3495914;28;20065;-46
2021/01/10 07:25:35;;;;;;;40.75;17.42;;;;;;;0.22;88.16;99838.81;3493852;28;20048;-49
2021/01/10 07:27:33;;;;;;;;;;;;;;;0.23;88.06;99845.69;3494191;28;20044;-46
2021/01/10 07:29:27;;;;;;;47.33;19.20;;;;;;;0.21;88.48;99840.50;3495881;28;19924;-47
2021/01/10 07:31:13;;;;;;;42.40;18.05;;;;;;;0.22;88.05;99846.47;3494597;28;20075;-47
2021/01/10 07:32:55;;;;;;;37.42;15.57;;;;;;;0.21;88.09;99844.72;3493835;28;20105;-47
2021/01/10 07:34:57;;;;;;;45.08;20.52;;;;;;;0.20;88.20;99837.84;3495878;28;20049;-47
2021/01/10 07:36:55;;;;;;;48.13;18.42;;;;;;;0.20;88.22;99842.94;3494682;28;20497;-48
2021/01/10 07:38:38;;;;;;;43.65;19.52;;;;;;;0.20;88.64;99850.59;3493279;28;20450;-47
2021/01/10 07:40:23;;;;;;;40.90;17.02;;;;;;;0.19;88.59;99848.84;3495463;28;20075;-47
2021/01/10 07:42:16;;;;;;;41.45;17.05;;;;;;;0.19;88.26;99848.84;3483490;28;20052;-48
2021/01/10 07:43:58;;;;;;;42.58;19.02;;;;;;;0.19;88.52;99844.63;3493481;28;20053;-47
2021/01/10 07:45:40;;;;;;;41.30;17.98;;;;;;;0.19;88.25;99842.06;3493480;28;20045;-47
2021/01/10 07:47:42;;;;;;;47.85;20.42;;;;;;;0.20;88.68;99845.50;3495635;28;20059;-49
2021/01/10 07:49:25;;;;;;;44.92;19.88;;;;;;;0.21;88.64;99844.72;3484816;28;20059;-46
2021/01/10 07:51:15;;;;;;;47.22;19.67;;;;;;;0.20;88.49;99854.03;3493526;28;20048;-46
2021/01/10 07:52:58;;;;;;;33.92;15.05;;;;;;;0.22;88.48;99851.56;3495632;28;20051;-47
2021/01/10 07:54:54;;;;;;;46.58;18.80;;;;;;;0.22;88.60;99849.00;3493485;28;20222;-47
2021/01/10 07:56:36;;;;;;;49.67;21.20;;;;;;;0.22;88.60;99847.38;3493340;28;20524;-47
2021/01/10 07:58:19;;;;;;;43.20;20.40;;;;;;;0.21;88.53;99843.03;3496020;28;20052;-47
2021/01/10 08:00:22;;;;;;;41.33;19.60;;;;;;;0.24;88.94;99849.97;3493722;28;20049;-46
2021/01/10 08:02:03;;;;;;;43.97;20.25;;;;;;;0.23;88.65;99850.78;3493183;28;20321;-47
2021/01/10 08:03:45;;;;;;;42.50;17.77;;;;;;;0.25;88.49;99849.19;3495847;28;20057;-47
2021/01/10 08:05:30;;;;;;;41.88;18.40;;;;;;;0.26;88.67;99860.28;3493241;28;20080;-47